Ust'- Kulom, Russia
Current Conditions -  °F | °C
As of 6:30 PM on Tuesday 21 Oct 2014 (Local Time) from UUYY Reporting Station
Clear Clear  
Wind Chill:   Ceiling: Unl
Heat Index: 12°   Visibility: 6mi
Dew Point:   Wind: 9mph
Humidity: 73%   Direction: 10°N
Pressure: 29.91"   Gusts: NA
Location:  61.69°N, 53.69°E
Report Text: UUYY 211530Z 01004MPS CAVOK M11/M15 Q1013 NOSIG 01CLRD61 RMKQFE750/1000
Loading
Personal Weather Stations






























Interactive Weather Map
Tropical Storm Tracking
New forecast layout! Learn more

10-Day Weather Forecast

Advertisements
Track Severe Weather on mobile